AL34 weather

Elam's Landing Airport
Moulton, Alabama, United States

Public forecast

Using degrees Fahrenheit for public forecast. Weather courtesy of forecast.io.

Closest aviation weather report (METAR) to Elam's Landing Airport

Report is more than 6 hours old.

Closest report is Lawrence County Airport, 12.9 nm (23.9 km) N. Retrieved 2013/08/22 05:35 UTC (6 years ago):

K9A4 220535Z AUTO 00000KT 10SM CLR 21/21 A3016 RMK AO2

Closest aviation forecast (TAF) to Elam's Landing Airport

Closest forecast is Northwest Alabama Regional Airport, 21.1 nm (39.0 km) NNW. Retrieved 2019/11/11 18:22 UTC (2 hours ago):

TAF KMSL 111720Z 1118/1218 22010KT P6SM BKN250 FM112100 23005KT 6SM -RA SCT020 OVC070 FM120000 32013G20KT 6SM RA SCT006 OVC015 FM120700 35016G26KT 5SM RASN SCT003 OVC009 PROB30 1208/1210 3SM PLSN BKN006 OVC015 FM121000 36015G25KT P6SM OVC015 FM121500 36013G23KT P6SM SCT025